Time;durP1;ratioP1;P1;durP2;ratioP2;P2;SDS_P1;SDS_P2;PMS_P1;PMS_P2;Temp;Humidity;BMP_temperature;BMP_pressure;BME280_temperature;BME280_humidity;BME280_pressure;Samples;Min_cycle;Max_cycle;Signal;HPM_P1;HPM_P2
2022/06/11 00:01:49;;;;;;;6.47;3.33;;;;;;;16.42;66.89;100087.34;5023573;28;20615;-71
2022/06/11 00:04:34;;;;;;;3.10;2.90;;;;;;;16.25;67.37;100086.88;5024522;28;20547;-72
2022/06/11 00:07:05;;;;;;;3.63;3.33;;;;;;;16.09;67.60;100084.63;5004791;28;20464;-70
2022/06/11 00:09:32;;;;;;;3.67;3.20;;;;;;;16.04;67.82;100083.28;5004535;28;20443;-70
2022/06/11 00:11:58;;;;;;;7.53;3.57;;;;;;;16.04;67.72;100080.63;5004278;28;20990;-70
2022/06/11 00:14:26;;;;;;;3.83;2.70;;;;;;;16.06;67.69;100092.78;5005411;28;20813;-73
2022/06/11 00:16:52;;;;;;;4.43;3.27;;;;;;;16.08;67.61;100085.56;5023336;28;20610;-70
2022/06/11 00:19:21;;;;;;;7.57;3.47;;;;;;;16.08;67.69;100079.44;5024037;28;20444;-70
2022/06/11 00:21:49;;;;;;;4.00;3.10;;;;;;;16.07;67.70;100083.91;5023964;28;20218;-70
2022/06/11 00:24:16;;;;;;;4.40;3.10;;;;;;;16.07;67.66;100083.91;5024198;28;20539;-71
2022/06/11 00:26:43;;;;;;;3.00;2.70;;;;;;;16.07;67.73;100094.50;5023397;28;20964;-74
2022/06/11 00:29:12;;;;;;;3.30;2.70;;;;;;;16.08;67.68;100095.34;5005506;28;20893;-75
2022/06/11 00:31:38;;;;;;;3.63;3.33;;;;;;;16.12;67.54;100091.47;5022883;28;20488;-72
2022/06/11 00:34:03;;;;;;;6.33;3.20;;;;;;;16.11;67.53;100089.78;5023579;28;20466;-75
2022/06/11 00:36:29;;;;;;;3.93;3.00;;;;;;;16.09;67.59;100089.94;5025018;28;20626;-73
2022/06/11 00:38:56;;;;;;;5.00;2.93;;;;;;;16.03;67.57;100086.91;5023529;28;20240;-73
2022/06/11 00:41:26;;;;;;;3.43;3.13;;;;;;;15.97;67.93;100098.84;5024195;28;20444;-77
2022/06/11 00:43:53;;;;;;;3.43;2.70;;;;;;;15.92;67.87;100093.88;5023262;28;20912;-74
2022/06/11 00:46:43;;;;;;;7.77;4.20;;;;;;;15.91;67.76;100096.66;5023048;28;20442;-73
2022/06/11 00:49:28;;;;;;;5.60;3.10;;;;;;;15.90;67.80;100093.19;5023592;28;20908;-73
2022/06/11 00:52:05;;;;;;;4.30;3.90;;;;;;;15.87;67.81;100098.69;5023730;28;20487;-73
2022/06/11 00:54:33;;;;;;;5.30;3.10;;;;;;;15.82;67.78;100094.72;5023448;28;20481;-74
2022/06/11 00:57:00;;;;;;;3.73;2.70;;;;;;;15.77;67.97;100099.53;5023473;28;20828;-74
2022/06/11 00:59:32;;;;;;;5.80;2.53;;;;;;;15.67;68.11;100088.78;5023367;28;20463;-73
2022/06/11 01:01:58;;;;;;;4.50;3.00;;;;;;;15.61;68.42;100087.47;5023347;28;20526;-74
2022/06/11 01:04:30;;;;;;;2.90;2.60;;;;;;;15.53;68.63;100088.97;5023030;28;20455;-73
2022/06/11 01:07:05;;;;;;;5.70;3.30;;;;;;;15.47;68.83;100087.66;5023446;28;20228;-77
2022/06/11 01:09:44;;;;;;;5.20;3.25;;;;;;;15.43;68.86;100086.22;5023425;28;20243;-75
2022/06/11 01:12:18;;;;;;;6.33;3.33;;;;;;;15.40;69.27;100094.41;5022692;28;20592;-74
2022/06/11 01:15:07;;;;;;;2.77;2.57;;;;;;;15.36;69.33;100088.47;5022634;28;20767;-73
2022/06/11 01:17:54;;;;;;;3.80;3.25;;;;;;;15.30;69.59;100096.03;5023251;28;20449;-73
2022/06/11 01:20:41;;;;;;;5.95;3.50;;;;;;;15.24;69.80;100100.84;5022884;28;20593;-72
2022/06/11 01:23:15;;;;;;;6.30;3.65;;;;;;;;;;5023030;28;20216;-73
2022/06/11 01:25:40;;;;;;;5.40;3.40;;;;;;;;;;5022863;28;20244;-74
2022/06/11 01:28:16;;;;;;;3.90;3.30;;;;;;;;;;5023080;28;20457;-73
2022/06/11 01:30:44;;;;;;;4.30;3.85;;;;;;;;;;5021764;28;20753;-76
2022/06/11 01:33:24;;;;;;;3.25;2.97;;;;;;;;;;5022822;28;20532;-73
2022/06/11 01:35:52;;;;;;;5.30;2.95;;;;;;;;;;5024147;28;20928;-73
2022/06/11 01:38:38;;;;;;;4.45;3.13;;;;;;;;;;5022976;28;20231;-73
2022/06/11 01:41:17;;;;;;;5.78;3.15;;;;;;;;;;5011831;28;20334;-76
2022/06/11 01:43:44;;;;;;;7.68;3.17;;;;;;;;;;5022617;28;20199;-72
2022/06/11 01:46:14;;;;;;;3.33;3.13;;;;;;;;;;5023015;28;20198;-76
2022/06/11 01:49:00;;;;;;;4.50;3.40;;;;;;;15.11;nan;100094.78;5022796;28;20208;-73
2022/06/11 01:51:56;;;;;;;5.00;3.47;;;;;;;15.09;nan;100090.56;5022666;28;20199;-75
2022/06/11 01:54:46;;;;;;;3.83;3.53;;;;;;;15.01;nan;100094.63;5022352;28;20213;-73
2022/06/11 01:57:42;;;;;;;6.28;3.55;;;;;;;14.89;nan;100106.09;5022635;28;20680;-73
2022/06/11 02:00:31;;;;;;;4.95;3.42;;;;;;;14.70;nan;100096.03;5022594;28;20290;-72
2022/06/11 02:02:59;;;;;;;4.80;3.05;;;;;;;14.53;nan;100093.78;5021451;28;20220;-76
2022/06/11 02:05:58;;;;;;;2.80;2.60;;;;;;;14.48;nan;100091.44;5022034;28;20632;-73
2022/06/11 02:08:47;;;;;;;3.75;2.72;;;;;;;14.52;nan;100092.91;5022844;28;20276;-73
2022/06/11 02:11:43;;;;;;;6.80;2.75;;;;;;;14.56;nan;100089.13;5022921;28;20660;-76
2022/06/11 02:14:18;;;;;;;4.30;2.88;;;;;;;14.62;nan;100086.97;5021934;28;20250;-76
2022/06/11 02:17:06;;;;;;;3.53;3.22;;;;;;;14.68;nan;100094.47;5009424;28;20246;-72
2022/06/11 02:19:39;;;;;;;2.72;2.53;;;;;;;14.67;nan;100090.97;5022586;28;20385;-74
2022/06/11 02:22:39;;;;;;;3.78;3.47;;;;;;;14.69;nan;100093.50;5022442;28;20220;-73
2022/06/11 02:25:14;;;;;;;5.93;3.53;;;;;;;14.68;nan;100091.81;5019050;28;20246;-76
2022/06/11 02:27:42;;;;;;;4.00;3.60;;;;;;;14.65;nan;100095.53;5022209;28;20260;-73
2022/06/11 02:30:12;;;;;;;4.13;3.50;;;;;;;14.64;nan;100093.00;5022306;28;20700;-76
2022/06/11 02:32:37;;;;;;;3.83;2.92;;;;;;;14.62;nan;100093.09;5060177;23;20595;-79
2022/06/11 02:35:08;;;;;;;3.60;3.30;;;;;;;14.59;nan;100093.34;5068167;28;20269;-79
2022/06/11 02:37:38;;;;;;;6.10;3.70;;;;;;;14.54;nan;100087.53;5069935;28;20197;-80
2022/06/11 02:40:15;;;;;;;5.47;3.20;;;;;;;14.49;nan;100092.28;5072550;28;20411;-79
2022/06/11 02:42:41;;;;;;;2.88;2.45;;;;;;;14.44;nan;100097.03;5080790;28;20608;-79
2022/06/11 02:45:10;;;;;;;3.83;2.85;;;;;;;14.30;nan;100092.75;5092673;28;20202;-79
2022/06/11 02:47:36;;;;;;;3.22;2.85;;;;;;;14.11;nan;100098.50;5093586;28;20682;-80
2022/06/11 02:50:03;;;;;;;3.73;3.43;;;;;;;;;;5093105;28;20274;-80
2022/06/11 02:52:29;;;;;;;3.83;2.60;;;;;;;;;;5093644;28;21025;-79
2022/06/11 02:54:54;;;;;;;3.60;3.30;;;;;;;;;;5093215;28;20283;-80
2022/06/11 02:57:22;;;;;;;2.83;2.63;;;;;;;;;;5093215;28;20223;-79
2022/06/11 02:59:47;;;;;;;3.10;2.80;;;;;;;;;;5092204;28;20477;-80
2022/06/11 03:02:13;;;;;;;6.90;3.30;;;;;;;;;;5092719;28;20487;-80
2022/06/11 03:04:38;;;;;;;3.83;3.13;;;;;;;;;;5091727;28;20216;-79
2022/06/11 03:07:04;;;;;;;3.53;3.23;;;;;;;;;;5092666;28;20242;-79
2022/06/11 03:09:30;;;;;;;4.70;2.67;;;;;;;;;;5092658;28;20665;-80
2022/06/11 03:11:56;;;;;;;2.90;2.63;;;;;;;;;;5093178;28;20481;-79
2022/06/11 03:14:22;;;;;;;3.92;3.45;;;;;;;;;;5093275;28;20200;-80
2022/06/11 03:16:47;;;;;;;6.80;2.90;;;;;;;;;;5092004;28;20206;-80
2022/06/11 03:19:13;;;;;;;3.20;2.90;;;;;;;;;;5092222;28;20231;-80
2022/06/11 03:21:39;;;;;;;2.93;2.70;;;;;;;;;;5091652;28;20219;-80
2022/06/11 03:24:04;;;;;;;2.90;2.70;;;;;;;;;;5093145;28;20275;-80
2022/06/11 03:26:29;;;;;;;3.27;3.00;;;;;;;;;;5093929;28;20193;-80
2022/06/11 03:28:55;;;;;;;10.33;3.87;;;;;;;;;;5092597;28;20697;-80
2022/06/11 03:31:20;;;;;;;3.57;3.27;;;;;;;;;;5092828;28;20196;-80
2022/06/11 03:33:45;;;;;;;6.80;3.60;;;;;;;;;;5092911;28;20248;-80
2022/06/11 03:36:14;;;;;;;4.13;3.70;;;;;;;13.74;nan;100130.09;5093213;28;20211;-80
2022/06/11 03:38:42;;;;;;;3.75;3.35;;;;;;;13.69;nan;100124.28;5093212;28;20243;-80
2022/06/11 03:41:08;;;;;;;4.30;3.00;;;;;;;13.66;nan;100125.34;5093452;28;20697;-80
2022/06/11 03:43:34;;;;;;;3.58;3.28;;;;;;;;;;5092823;28;20309;-80
2022/06/11 03:45:59;;;;;;;3.70;3.00;;;;;;;;;;5092648;28;20254;-80
2022/06/11 03:48:28;;;;;;;3.87;2.83;;;;;;;;;;5093512;28;20216;-80
2022/06/11 03:50:53;;;;;;;5.20;3.05;;;;;;;;;;5093775;28;20215;-80
2022/06/11 03:53:19;;;;;;;5.40;3.00;;;;;;;;;;5090766;28;20228;-80
2022/06/11 03:55:44;;;;;;;3.70;3.20;;;;;;;;;;5091258;28;20202;-80
2022/06/11 03:58:10;;;;;;;3.70;3.30;;;;;;;;;;5091665;28;20203;-80
2022/06/11 04:03:21;;;;;;;5.53;3.08;;;;;;;;;;5091287;28;20203;-80
2022/06/11 04:05:47;;;;;;;3.97;3.60;;;;;;;;;;5091019;28;20207;-80
2022/06/11 04:08:14;;;;;;;5.60;3.75;;;;;;;;;;5095179;28;20215;-80
2022/06/11 04:10:41;;;;;;;5.00;3.30;;;;;;;;;;5093326;28;20203;-80
2022/06/11 04:13:08;;;;;;;4.32;3.90;;;;;;;;;;5090028;28;20244;-80
2022/06/11 04:15:34;;;;;;;6.35;4.40;;;;;;;;;;5089861;28;20227;-80
2022/06/11 04:17:59;;;;;;;6.33;4.07;;;;;;;;;;5088440;28;20197;-79
2022/06/11 04:20:25;;;;;;;4.60;3.30;;;;;;;;;;5088663;28;20200;-80
2022/06/11 04:22:50;;;;;;;4.13;3.47;;;;;;;;;;5088514;28;20232;-80
2022/06/11 04:25:16;;;;;;;3.60;2.90;;;;;;;;;;5091787;28;20728;-80
2022/06/11 04:27:41;;;;;;;7.00;4.80;;;;;;;;;;5084348;28;20252;-79
2022/06/11 04:30:08;;;;;;;5.83;4.73;;;;;;;;;;5089106;28;20481;-79
2022/06/11 04:32:33;;;;;;;5.63;4.97;;;;;;;;;;5087342;28;20245;-80
2022/06/11 04:34:58;;;;;;;6.47;5.87;;;;;;;;;;5093422;28;20421;-80
2022/06/11 04:37:25;;;;;;;5.47;4.97;;;;;;;;;;5087633;28;20211;-80
2022/06/11 04:39:52;;;;;;;4.47;4.00;;;;;;;;;;5095178;28;20204;-80
2022/06/11 04:42:18;;;;;;;4.82;3.40;;;;;;;;;;5090620;28;20698;-80
2022/06/11 04:44:44;;;;;;;3.50;3.17;;;;;;;;;;5090652;28;20200;-80
2022/06/11 04:47:10;;;;;;;5.13;3.40;;;;;;;;;;5088335;28;20207;-80
2022/06/11 04:49:36;;;;;;;2.95;2.75;;;;;;;;;;5088151;28;20283;-80
2022/06/11 04:52:02;;;;;;;6.20;4.03;;;;;;;;;;5068596;28;20323;-80
2022/06/11 04:54:27;;;;;;;3.45;2.85;;;;;;;;;;5088283;28;20205;-80
2022/06/11 04:56:53;;;;;;;4.57;3.20;;;;;;;;;;5087162;28;20195;-80
2022/06/11 04:59:19;;;;;;;4.00;3.03;;;;;;;;;;5070739;28;20194;-80
2022/06/11 05:01:44;;;;;;;3.97;3.57;;;;;;;;;;5090234;28;20201;-81
2022/06/11 05:04:10;;;;;;;3.20;2.87;;;;;;;;;;5087537;28;20318;-80
2022/06/11 05:06:39;;;;;;;4.60;3.87;;;;;;;17.82;nan;100157.19;5086660;28;20199;-80
2022/06/11 05:09:06;;;;;;;7.57;4.40;;;;;;;18.18;nan;100155.00;5087214;28;20438;-80
2022/06/11 05:11:33;;;;;;;4.90;3.70;;;;;;;18.74;nan;100162.50;5092981;28;20684;-80
2022/06/11 05:13:58;;;;;;;4.00;3.60;;;;;;;19.33;nan;100157.22;5089817;28;20845;-80
2022/06/11 05:16:24;;;;;;;4.30;3.37;;;;;;;19.87;nan;100156.66;5095617;28;20509;-80
2022/06/11 05:18:50;;;;;;;5.07;2.97;;;;;;;20.33;nan;100159.41;5088078;28;20239;-80
2022/06/11 05:21:16;;;;;;;3.27;3.00;;;;;;;20.68;nan;100165.88;5109384;28;20457;-80
2022/06/11 05:23:41;;;;;;;3.73;3.40;;;;;;;21.02;nan;100163.44;5103776;28;20263;-80
2022/06/11 05:26:08;;;;;;;3.03;2.70;;;;;;;21.42;nan;100160.34;5071525;28;20196;-80
2022/06/11 05:28:35;;;;;;;3.03;2.53;;;;;;;21.80;nan;100162.81;5088981;28;20234;-80
2022/06/11 05:31:01;;;;;;;2.97;2.77;;;;;;;22.15;nan;100158.34;5088365;28;20455;-80
2022/06/11 05:33:27;;;;;;;3.47;2.70;;;;;;;22.51;nan;100159.03;5088102;28;20868;-80
2022/06/11 05:35:54;;;;;;;3.10;2.90;;;;;;;22.82;nan;100163.81;5088274;28;20425;-80
2022/06/11 05:38:23;;;;;;;2.80;2.60;;;;;;;23.11;nan;100163.41;5088749;28;20458;-80
2022/06/11 05:40:50;;;;;;;5.03;2.53;;;;;;;23.35;nan;100170.63;5089017;28;20765;-80
2022/06/11 05:43:17;;;;;;;3.97;3.13;;;;;;;23.56;nan;100170.97;5088882;28;20692;-80
2022/06/11 05:45:50;;;;;;;3.90;2.50;;;;;;;23.62;nan;100159.56;5088945;28;20702;-80
2022/06/11 05:48:20;;;;;;;4.10;2.60;;;;;;;23.76;nan;100162.59;5088935;28;20447;-80
2022/06/11 05:50:47;;;;;;;3.80;3.50;;;;;;;23.93;nan;100166.97;5088038;28;20685;-80
2022/06/11 05:53:16;;;;;;;3.20;3.00;;;;;;;24.04;nan;100169.28;5089373;28;20504;-80
2022/06/11 05:55:44;;;;;;;3.47;2.80;;;;;;;24.11;nan;100160.53;5089052;28;20447;-80
2022/06/11 05:58:20;;;;;;;3.03;2.53;;;;;;;24.36;nan;100162.16;5087829;28;20422;-80
2022/06/11 06:00:50;;;;;;;2.60;2.40;;;;;;;24.55;nan;100168.13;5086792;28;20218;-80
2022/06/11 06:03:15;;;;;;;3.17;2.87;;;;;;;24.66;nan;100160.53;5087154;28;20464;-81
2022/06/11 06:05:41;;;;;;;2.53;2.33;;;;;;;24.92;nan;100159.38;5090197;28;20449;-80
2022/06/11 06:08:07;;;;;;;4.13;2.70;;;;;;;25.12;nan;100157.06;5088895;28;20659;-80
2022/06/11 06:10:34;;;;;;;3.03;2.73;;;;;;;25.21;nan;100156.03;5089382;28;20199;-80
2022/06/11 06:12:59;;;;;;;2.57;2.37;;;;;;;25.31;nan;100158.47;5088577;28;20521;-80
2022/06/11 06:15:27;;;;;;;5.27;2.63;;;;;;;25.38;nan;100162.09;5092061;28;20498;-80
2022/06/11 06:17:54;;;;;;;3.80;2.60;;;;;;;25.46;nan;100162.03;5074199;28;20207;-80
2022/06/11 06:20:21;;;;;;;3.00;2.53;;;;;;;25.68;nan;100152.28;5092771;28;20457;-80
2022/06/11 06:22:47;;;;;;;3.20;2.60;;;;;;;25.87;nan;100153.66;5092088;28;20467;-80
2022/06/11 06:25:19;;;;;;;4.37;3.40;;;;;;;25.92;nan;100156.59;5073213;28;20442;-80
2022/06/11 06:27:45;;;;;;;5.00;2.60;;;;;;;25.90;nan;100158.66;5090762;28;20196;-80
2022/06/11 06:30:11;;;;;;;3.33;3.00;;;;;;;25.79;nan;100162.59;5092211;28;20454;-80
2022/06/11 06:32:37;;;;;;;4.40;3.20;;;;;;;25.73;nan;100163.31;5090384;28;20793;-81
2022/06/11 06:35:03;;;;;;;3.17;2.87;;;;;;;25.44;nan;100163.22;5090485;28;20308;-80
2022/06/11 06:37:31;;;;;;;3.40;3.10;;;;;;;25.39;nan;100166.47;5090265;28;20201;-80
2022/06/11 06:39:57;;;;;;;4.67;3.23;;;;;;;25.23;nan;100162.06;5089818;28;20476;-80
2022/06/11 06:42:22;;;;;;;3.40;2.70;;;;;;;25.27;nan;100162.53;5091403;28;20465;-80
2022/06/11 06:44:48;;;;;;;2.97;2.77;;;;;;;25.63;nan;100162.75;5091801;28;20203;-80
2022/06/11 06:47:14;;;;;;;4.57;2.70;;;;;;;26.01;nan;100155.50;5092998;28;20486;-80
2022/06/11 06:49:39;;;;;;;3.13;2.53;;;;;;;26.41;nan;100157.91;5095675;28;20216;-80
2022/06/11 06:52:05;;;;;;;4.73;4.30;;;;;;;26.80;nan;100154.06;5090742;28;20328;-80
2022/06/11 06:54:30;;;;;;;3.40;3.00;;;;;;;26.95;nan;100162.97;5091328;28;20200;-81
2022/06/11 06:56:56;;;;;;;3.97;2.33;;;;;;;26.95;nan;100162.97;5089306;28;20238;-81
2022/06/11 06:59:22;;;;;;;4.33;2.73;;;;;;;27.02;nan;100155.75;5089623;28;20219;-81
2022/06/11 07:01:48;;;;;;;4.13;2.93;;;;;;;26.96;nan;100163.78;5090390;28;20188;-81
2022/06/11 07:04:14;;;;;;;3.90;3.50;;;;;;;27.30;nan;100158.56;5091034;28;20479;-80
2022/06/11 07:06:40;;;;;;;4.30;2.80;;;;;;;27.69;nan;100164.50;5090868;28;20443;-80
2022/06/11 07:09:06;;;;;;;4.60;3.13;;;;;;;28.05;nan;100161.66;5092418;28;20202;-80
2022/06/11 07:11:32;;;;;;;3.07;2.47;;;;;;;28.34;nan;100163.28;5093222;28;20560;-80
2022/06/11 07:13:58;;;;;;;3.17;2.83;;;;;;;28.42;nan;100159.59;5090634;28;20490;-80
2022/06/11 07:16:31;;;;;;;4.27;3.00;;;;;;;28.42;nan;100165.81;5090141;28;20301;-80
2022/06/11 07:19:01;;;;;;;2.90;2.33;;;;;;;28.55;nan;100158.84;5091003;28;20459;-80
2022/06/11 07:21:32;;;;;;;5.20;3.93;;;;;;;28.68;nan;100156.22;5090209;28;20451;-81
2022/06/11 07:24:11;;;;;;;4.00;2.00;;;;;;;28.73;nan;100150.16;5091135;28;20551;-80
2022/06/11 07:26:41;;;;;;;2.83;2.53;;;;;;;28.68;nan;100154.34;5091423;28;20457;-80
2022/06/11 07:29:19;;;;;;;2.80;2.20;;;;;;;28.56;nan;100158.63;5088971;28;20438;-80
2022/06/11 07:31:49;;;;;;;4.00;2.50;;;;;;;28.75;nan;100157.03;5093093;28;20440;-81
2022/06/11 07:34:15;;;;;;;2.67;2.40;;;;;;;28.77;nan;100152.28;5091510;28;20495;-80
2022/06/11 07:36:41;;;;;;;3.90;3.50;;;;;;;28.64;nan;100147.66;5090310;28;20448;-80
2022/06/11 07:39:06;;;;;;;3.10;2.53;;;;;;;28.70;nan;100143.31;5090150;28;20812;-80
2022/06/11 07:41:32;;;;;;;2.87;2.20;;;;;;;28.86;nan;100137.53;5091644;28;20438;-80
2022/06/11 07:43:57;;;;;;;3.40;2.13;;;;;;;29.03;nan;100138.00;5092595;28;20622;-80
2022/06/11 07:46:23;;;;;;;4.17;2.93;;;;;;;29.10;nan;100132.63;5090781;28;20195;-80
2022/06/11 07:48:48;;;;;;;2.33;2.17;;;;;;;29.05;nan;100133.22;5090359;28;20599;-80
2022/06/11 07:51:18;;;;;;;4.30;2.93;;;;;;;29.19;nan;100135.94;5098023;28;20686;-80
2022/06/11 07:53:46;;;;;;;4.50;2.17;;;;;;;29.34;nan;100132.00;5093697;28;20251;-80
2022/06/11 07:56:11;;;;;;;3.00;2.60;;;;;;;29.14;nan;100131.19;5090055;28;20490;-80
2022/06/11 07:58:37;;;;;;;2.23;1.90;;;;;;;29.11;nan;100131.56;5091180;28;20435;-80
2022/06/11 08:01:02;;;;;;;2.37;2.00;;;;;;;29.04;nan;100131.56;5093398;28;20224;-80
2022/06/11 08:03:28;;;;;;;3.30;2.20;;;;;;;28.89;nan;100128.16;5091254;28;20267;-80
2022/06/11 08:05:54;;;;;;;3.03;2.43;;;;;;;28.60;nan;100132.06;5091252;28;20308;-80
2022/06/11 08:08:21;;;;;;;3.63;2.97;;;;;;;28.59;nan;100133.91;5102238;28;20511;-80
2022/06/11 08:10:47;;;;;;;7.40;2.53;;;;;;;28.39;nan;100135.69;5109358;28;20811;-80
2022/06/11 08:13:13;;;;;;;6.90;2.33;;;;;;;28.30;nan;100121.50;5091572;28;20486;-80
2022/06/11 08:15:41;;;;;;;2.10;2.00;;;;;;;28.38;nan;100129.44;5090417;28;20436;-80
2022/06/11 08:18:07;;;;;;;7.70;2.27;;;;;;;28.58;nan;100121.44;5091986;28;20423;-80
2022/06/11 08:20:34;;;;;;;2.60;2.03;;;;;;;28.64;nan;100120.63;5091851;28;20495;-80
2022/06/11 08:23:02;;;;;;;3.20;2.37;;;;;;;28.41;nan;100125.50;5092603;28;20481;-80
2022/06/11 08:25:27;;;;;;;3.30;2.07;;;;;;;28.25;nan;100134.78;5091871;28;20433;-80
2022/06/11 08:27:54;;;;;;;6.50;3.50;;;;;;;27.87;nan;100139.72;5090143;28;20445;-79
2022/06/11 08:30:22;;;;;;;2.37;2.10;;;;;;;27.65;nan;100141.63;5090955;28;20430;-80
2022/06/11 08:32:48;;;;;;;3.77;2.37;;;;;;;27.68;nan;100133.13;5097498;22;21651;-70
2022/06/11 08:35:16;;;;;;;5.40;2.20;;;;;;;27.53;nan;100139.47;4997659;28;20429;-69
2022/06/11 08:37:42;;;;;;;4.40;2.60;;;;;;;27.46;nan;100133.16;4983286;28;21152;-69
2022/06/11 08:40:16;;;;;;;2.60;1.83;;;;;;;27.55;nan;100129.31;5004006;28;20499;-70
2022/06/11 08:42:43;;;;;;;2.20;2.00;;;;;;;27.83;nan;100128.50;5007203;28;20245;-70
2022/06/11 08:45:25;;;;;;;2.97;2.10;;;;;;;27.81;nan;100135.97;5025522;28;20430;-69
2022/06/11 08:47:58;;;;;;;4.93;2.93;;;;;;;27.85;nan;100129.16;5029116;28;21254;-71
2022/06/11 08:50:37;;;;;;;2.67;2.43;;;;;;;28.16;nan;100120.59;5032272;28;20439;-70
2022/06/11 08:53:05;;;;;;;2.30;2.00;;;;;;;28.32;nan;100119.41;5024472;28;21010;-70
2022/06/11 08:55:35;;;;;;;2.70;2.13;;;;;;;28.34;nan;100120.06;5023455;28;20795;-69
2022/06/11 08:58:31;;;;;;;2.77;2.13;;;;;;;28.53;nan;100121.22;5022962;28;20458;-70
2022/06/11 09:01:18;;;;;;;6.73;2.93;;;;;;;28.49;nan;100116.41;5023289;28;20687;-71
2022/06/11 09:03:52;;;;;;;2.77;2.07;;;;;;;28.38;nan;100117.78;5022976;28;20569;-69
2022/06/11 09:06:45;;;;;;;1.90;1.80;;;;;;;28.43;nan;100108.06;5011539;28;20582;-70
2022/06/11 09:09:24;;;;;;;2.60;1.67;;;;;;;28.50;nan;100112.69;5023339;28;20500;-70
2022/06/11 09:12:11;;;;;;;3.10;2.17;;;;;;;28.62;nan;100101.06;5004849;28;20784;-70
2022/06/11 09:14:57;;;;;;;2.13;1.60;;;;;;;28.70;nan;100101.91;5022686;28;20469;-70
2022/06/11 09:17:32;;;;;;;1.60;1.50;;;;;;;28.89;nan;100101.13;5023118;28;20457;-69
2022/06/11 09:20:26;;;;;;;2.90;1.63;;;;;;;29.06;nan;100102.44;5022408;28;20420;-70
2022/06/11 09:23:24;;;;;;;2.30;2.10;;;;;;;29.22;nan;100101.22;5014388;28;20492;-70
2022/06/11 09:26:07;;;;;;;3.70;2.13;;;;;;;29.38;nan;100108.09;5022180;28;20452;-70
2022/06/11 09:28:50;;;;;;;2.47;1.90;;;;;;;29.50;nan;100102.88;5022830;28;20513;-69
2022/06/11 09:31:21;;;;;;;3.10;2.27;;;;;;;29.61;nan;100101.41;5024825;28;20499;-70
2022/06/11 09:34:00;;;;;;;1.80;1.70;;;;;;;29.54;nan;100102.25;5042244;28;20855;-70
2022/06/11 09:36:33;;;;;;;2.53;2.13;;;;;;;29.41;nan;100098.69;5042357;28;20487;-70
2022/06/11 09:39:04;;;;;;;2.07;1.90;;;;;;;29.43;nan;100102.88;5042094;28;20960;-69
2022/06/11 09:41:42;;;;;;;3.00;2.10;;;;;;;29.47;nan;100096.00;5019597;28;20475;-70
2022/06/11 09:44:25;;;;;;;1.90;1.70;;;;;;;29.59;nan;100098.91;4983006;28;20478;-70
2022/06/11 09:46:57;;;;;;;14.73;4.93;;;;;;;29.74;nan;100093.31;4983045;28;21040;-70
2022/06/11 09:49:40;;;;;;;2.00;1.80;;;;;;;29.92;nan;100093.47;4985615;28;20961;-69
2022/06/11 09:52:47;;;;;;;4.43;2.07;;;;;;;30.14;nan;100091.31;4986873;28;20470;-70
2022/06/11 09:55:29;;;;;;;2.80;2.03;;;;;;;30.31;nan;100088.97;4987490;28;20436;-70
2022/06/11 09:58:16;;;;;;;2.53;1.80;;;;;;;30.43;nan;100091.84;5012949;28;20483;-69
2022/06/11 10:00:57;;;;;;;2.10;1.90;;;;;;;30.52;nan;100085.13;5026471;28;20473;-70
2022/06/11 10:03:31;;;;;;;2.67;2.07;;;;;;;30.60;nan;100084.88;5026414;28;20502;-70
2022/06/11 10:06:12;;;;;;;1.67;1.57;;;;;;;30.73;nan;100092.13;5026242;28;20754;-70
2022/06/11 10:08:57;;;;;;;2.33;2.10;;;;;;;30.78;nan;100081.41;5008314;28;20453;-70
2022/06/11 10:11:32;;;;;;;3.13;2.03;;;;;;;30.84;nan;100085.19;5026135;28;20468;-70
2022/06/11 10:14:28;;;;;;;1.30;1.20;;;;;;;30.84;nan;100093.34;5026180;28;20587;-70
2022/06/11 10:16:59;;;;;;;3.40;2.40;;;;;;;30.94;nan;100087.41;5026361;28;20708;-70
2022/06/11 10:19:39;;;;;;;2.00;1.30;;;;;;;30.85;nan;100087.69;5025780;28;20454;-70
2022/06/11 10:22:19;;;;;;;2.47;2.27;;;;;;;30.70;nan;100091.72;5008319;28;20454;-70
2022/06/11 10:24:57;;;;;;;2.30;1.60;;;;;;;30.64;nan;100086.09;5026321;28;20465;-70
2022/06/11 10:27:26;;;;;;;1.80;1.70;;;;;;;30.37;nan;100087.28;5005686;28;20956;-70
2022/06/11 10:29:56;;;;;;;2.90;1.83;;;;;;;30.40;nan;100084.97;5006620;28;20463;-70
2022/06/11 10:32:38;;;;;;;1.80;1.70;;;;;;;30.56;nan;100080.94;5013572;28;21225;-70
2022/06/11 10:35:17;;;;;;;1.57;1.47;;;;;;;30.85;nan;100078.72;5025817;28;20458;-70
2022/06/11 10:37:50;;;;;;;1.80;1.70;;;;;;;31.17;nan;100078.69;5026316;28;20710;-70
2022/06/11 10:40:21;;;;;;;2.30;1.40;;;;;;;31.17;nan;100070.56;5026166;28;20442;-71
2022/06/11 10:43:10;;;;;;;1.97;1.73;;;;;;;31.15;nan;100078.91;5025981;28;20857;-70
2022/06/11 10:45:36;;;;;;;1.70;1.60;;;;;;;31.17;nan;100070.56;5025851;28;20450;-71
2022/06/11 10:48:11;;;;;;;3.63;2.30;;;;;;;31.20;nan;100070.13;5024872;28;20449;-71
2022/06/11 10:50:38;;;;;;;2.70;1.50;;;;;;;31.21;nan;100074.47;5024421;28;20278;-71
2022/06/11 10:53:28;;;;;;;4.87;1.60;;;;;;;31.19;nan;100068.44;5024540;28;20474;-71
2022/06/11 10:56:05;;;;;;;1.80;1.63;;;;;;;31.06;nan;100069.38;5024764;28;20470;-71
2022/06/11 10:58:39;;;;;;;3.10;2.03;;;;;;;30.83;nan;100062.66;5025529;28;20936;-71
2022/06/11 11:01:21;;;;;;;3.30;2.47;;;;;;;30.79;nan;100064.13;5025227;28;20505;-71
2022/06/11 11:03:57;;;;;;;3.43;1.70;;;;;;;30.74;nan;100057.69;5025152;28;20489;-71
2022/06/11 11:06:35;;;;;;;2.37;1.70;;;;;;;30.60;nan;100065.09;5026277;28;20448;-71
2022/06/11 11:09:09;;;;;;;4.27;1.80;;;;;;;30.54;nan;100063.22;5025531;28;20451;-71
2022/06/11 11:11:48;;;;;;;3.83;1.80;;;;;;;30.48;nan;100054.06;5025723;28;20872;-71
2022/06/11 11:14:16;;;;;;;2.37;2.17;;;;;;;30.45;nan;100054.50;5025147;28;20493;-71
2022/06/11 11:16:47;;;;;;;1.63;1.53;;;;;;;30.25;nan;100062.75;5025416;28;20500;-71
2022/06/11 11:19:28;;;;;;;4.00;1.97;;;;;;;30.05;nan;100056.53;5025435;28;20861;-71
2022/06/11 11:21:58;;;;;;;1.87;1.77;;;;;;;30.02;nan;100044.25;5025296;28;20438;-71
2022/06/11 11:25:02;;;;;;;2.73;1.73;;;;;;;30.08;nan;100047.97;5025442;28;20478;-71
2022/06/11 11:27:41;;;;;;;2.43;1.60;;;;;;;30.00;nan;100046.34;5020694;28;20462;-70
2022/06/11 11:30:15;;;;;;;3.40;2.00;;;;;;;29.78;nan;100043.06;5025078;28;21006;-71
2022/06/11 11:32:44;;;;;;;3.30;1.63;;;;;;;29.68;nan;100048.13;5024610;28;20843;-70
2022/06/11 11:35:27;;;;;;;2.30;1.63;;;;;;;29.69;nan;100039.78;5024960;28;20442;-70
2022/06/11 11:38:04;;;;;;;1.20;1.10;;;;;;;29.78;nan;100040.38;5025056;28;20773;-70
2022/06/11 11:40:33;;;;;;;1.70;1.40;;;;;;;29.67;nan;100032.91;5025413;28;20527;-71
2022/06/11 11:43:05;;;;;;;3.73;1.63;;;;;;;29.56;nan;100031.66;5024971;28;21224;-70
2022/06/11 11:45:58;;;;;;;2.37;1.50;;;;;;;29.32;nan;100031.25;5024858;28;20609;-71
2022/06/11 11:48:33;;;;;;;1.20;1.10;;;;;;;29.17;nan;100030.66;5024601;28;20960;-70
2022/06/11 11:51:07;;;;;;;2.13;1.80;;;;;;;29.27;nan;100033.78;5024804;28;20462;-70
2022/06/11 11:53:40;;;;;;;2.73;1.70;;;;;;;29.38;nan;100017.94;5024938;28;20498;-70
2022/06/11 11:56:21;;;;;;;1.97;1.83;;;;;;;29.39;nan;100022.31;5024504;28;20469;-71
2022/06/11 11:58:55;;;;;;;2.50;2.17;;;;;;;29.52;nan;100016.88;5027339;28;20545;-70
2022/06/11 12:01:23;;;;;;;1.90;1.50;;;;;;;29.55;nan;100013.75;5024738;28;20451;-71
2022/06/11 12:04:18;;;;;;;3.80;2.03;;;;;;;29.46;nan;100012.31;5024912;28;20483;-71
2022/06/11 12:06:50;;;;;;;2.50;1.63;;;;;;;29.43;nan;100015.44;5017614;28;20466;-71
2022/06/11 12:09:24;;;;;;;1.70;1.60;;;;;;;29.41;nan;100007.53;5024519;28;20477;-71
2022/06/11 12:12:17;;;;;;;1.70;1.60;;;;;;;29.50;nan;100013.56;5023809;28;20473;-71
2022/06/11 12:14:55;;;;;;;2.30;1.40;;;;;;;29.64;nan;100000.84;5024424;28;20462;-71
2022/06/11 12:17:45;;;;;;;1.80;1.70;;;;;;;29.65;nan;99997.94;5023467;28;20458;-70
2022/06/11 12:20:29;;;;;;;2.47;1.97;;;;;;;29.68;nan;99996.69;5024185;28;20458;-70
2022/06/11 12:23:35;;;;;;;2.07;1.87;;;;;;;29.50;nan;99997.31;5024185;28;20831;-70
2022/06/11 12:26:03;;;;;;;1.70;1.60;;;;;;;29.42;nan;100000.25;5024704;28;20907;-70
2022/06/11 12:28:42;;;;;;;2.70;1.70;;;;;;;29.32;nan;99996.09;5024606;28;20469;-70
2022/06/11 12:31:10;;;;;;;4.03;2.10;;;;;;;29.06;nan;99998.84;5024231;28;20450;-70
2022/06/11 12:33:43;;;;;;;2.63;1.80;;;;;;;29.01;nan;99995.91;5022540;28;20523;-71
2022/06/11 12:36:15;;;;;;;2.73;1.60;;;;;;;28.95;nan;99996.72;5024436;28;20560;-70
2022/06/11 12:38:59;;;;;;;1.63;1.40;;;;;;;29.02;nan;99992.13;5024172;28;20871;-70